Time;durP1;ratioP1;P1;durP2;ratioP2;P2;SDS_P1;SDS_P2;PMS_P1;PMS_P2;Temp;Humidity;BMP_temperature;BMP_pressure;BME280_temperature;BME280_humidity;BME280_pressure;Samples;Min_cycle;Max_cycle;Signal;HPM_P1;HPM_P2
2022/05/01 00:00:15;;;;;;;16.05;13.77;;;6.80;99.90;;;;;;5089663;28;20505;-77
2022/05/01 00:02:40;;;;;;;16.98;14.55;;;6.80;99.90;;;;;;5089271;28;20406;-77
2022/05/01 00:05:07;;;;;;;17.50;14.73;;;6.80;99.90;;;;;;5089306;28;20448;-77
2022/05/01 00:07:32;;;;;;;16.90;14.50;;;6.70;99.90;;;;;;5089583;28;20402;-77
2022/05/01 00:09:58;;;;;;;16.93;13.63;;;6.70;99.90;;;;;;5090653;28;20429;-77
2022/05/01 00:12:24;;;;;;;17.40;14.90;;;6.60;99.90;;;;;;5090222;28;20567;-77
2022/05/01 00:14:50;;;;;;;17.13;14.55;;;6.60;99.90;;;;;;5090243;28;20429;-77
2022/05/01 00:17:15;;;;;;;17.13;14.57;;;6.60;99.90;;;;;;5089443;28;20409;-77
2022/05/01 00:19:41;;;;;;;17.07;15.23;;;6.60;99.90;;;;;;5090006;28;20798;-77
2022/05/01 00:22:06;;;;;;;17.85;14.80;;;6.60;99.90;;;;;;5088521;28;20394;-77
2022/05/01 00:24:32;;;;;;;16.30;14.20;;;6.50;99.90;;;;;;5088993;28;20402;-77
2022/05/01 00:27:00;;;;;;;16.73;14.37;;;6.50;99.90;;;;;;5089261;28;21158;-77
2022/05/01 00:29:26;;;;;;;16.45;14.63;;;6.50;99.90;;;;;;5090334;28;20398;-77
2022/05/01 00:31:51;;;;;;;17.67;15.63;;;6.50;99.90;;;;;;5089911;28;20801;-77
2022/05/01 00:37:02;;;;;;;20.75;15.70;;;6.50;99.90;;;;;;5034827;28;21218;-78
2022/05/01 00:39:28;;;;;;;19.77;16.63;;;6.40;99.90;;;;;;4987732;28;20410;-78
2022/05/01 00:41:53;;;;;;;19.00;16.02;;;6.40;99.90;;;;;;5088601;28;20758;-78
2022/05/01 00:44:21;;;;;;;17.25;15.13;;;6.40;99.90;;;;;;4986228;28;20438;-77
2022/05/01 00:46:50;;;;;;;16.80;14.75;;;6.40;99.90;;;;;;4986821;28;20446;-77
2022/05/01 00:49:24;;;;;;;17.08;15.10;;;6.30;99.90;;;;;;4986669;28;20418;-78
2022/05/01 00:52:00;;;;;;;17.33;15.45;;;6.30;99.90;;;;;;4986019;28;20442;-78
2022/05/01 00:54:29;;;;;;;16.55;14.80;;;6.30;99.90;;;;;;4986524;28;20462;-78
2022/05/01 00:56:57;;;;;;;17.67;15.73;;;6.20;99.90;;;;;;4986742;28;20418;-78
2022/05/01 00:59:23;;;;;;;16.55;13.73;;;6.20;99.90;;;;;;4985966;28;20498;-78
2022/05/01 01:01:50;;;;;;;20.27;15.30;;;6.20;99.90;;;;;;4986626;28;20435;-78
2022/05/01 01:04:17;;;;;;;19.67;16.35;;;6.20;99.90;;;;;;4985760;28;21048;-78
2022/05/01 01:06:43;;;;;;;18.67;16.10;;;6.10;99.90;;;;;;4986956;28;20418;-78
2022/05/01 01:09:09;;;;;;;16.55;14.38;;;6.10;99.90;;;;;;4966641;28;20424;-78
2022/05/01 01:11:36;;;;;;;16.52;14.80;;;6.10;99.90;;;;;;5034139;28;20436;-77
2022/05/01 01:14:05;;;;;;;18.15;15.65;;;6.00;99.90;;;;;;4972373;28;20412;-78
2022/05/01 01:16:38;;;;;;;17.63;14.98;;;6.00;99.90;;;;;;5006576;28;20534;-78
2022/05/01 01:19:06;;;;;;;16.52;14.65;;;6.00;99.90;;;;;;5041317;28;20398;-78
2022/05/01 01:21:32;;;;;;;17.90;15.35;;;6.00;99.90;;;;;;5088955;28;20792;-78
2022/05/01 01:23:59;;;;;;;18.67;16.57;;;6.00;99.90;;;;;;5089205;28;20401;-78
2022/05/01 01:26:26;;;;;;;19.45;16.55;;;6.00;99.90;;;;;;5087910;28;20406;-78
2022/05/01 01:28:53;;;;;;;19.55;16.58;;;6.00;99.90;;;;;;5072895;28;20496;-77
2022/05/01 01:31:41;;;;;;;19.25;16.15;;;5.90;99.90;;;;;;5005933;28;20409;-78
2022/05/01 01:34:10;;;;;;;20.48;16.13;;;5.90;99.90;;;;;;5006011;28;20405;-77
2022/05/01 01:36:38;;;;;;;17.48;15.18;;;5.90;99.90;;;;;;5006307;28;20405;-78
2022/05/01 01:39:04;;;;;;;16.42;14.68;;;5.90;99.90;;;;;;5005863;28;20406;-78
2022/05/01 01:41:31;;;;;;;17.98;15.60;;;5.90;99.90;;;;;;5108033;27;20491;-78
2022/05/01 01:43:58;;;;;;;17.75;14.70;;;5.80;99.90;;;;;;5000332;28;20410;-77
2022/05/01 01:46:23;;;;;;;18.30;15.80;;;5.80;99.90;;;;;;5087006;28;20444;-77
2022/05/01 01:48:50;;;;;;;19.27;16.27;;;5.80;99.90;;;;;;5088394;28;20422;-77
2022/05/01 01:51:17;;;;;;;18.70;16.25;;;5.80;99.90;;;;;;5087704;28;20405;-77
2022/05/01 01:53:43;;;;;;;17.73;15.55;;;5.70;99.90;;;;;;5088284;28;20555;-78
2022/05/01 01:56:09;;;;;;;18.00;15.60;;;5.70;99.90;;;;;;5104387;28;20898;-77
2022/05/01 01:58:36;;;;;;;17.10;15.30;;;5.70;99.90;;;;;;5087334;28;20398;-77
2022/05/01 02:01:03;;;;;;;19.60;16.35;;;5.60;99.90;;;;;;5087470;28;20480;-77
2022/05/01 02:03:29;;;;;;;20.13;16.73;;;5.60;99.90;;;;;;5088163;28;20402;-78
2022/05/01 02:05:54;;;;;;;18.25;16.30;;;5.60;99.90;;;;;;5088088;28;20489;-78
2022/05/01 02:08:20;;;;;;;17.73;15.83;;;5.60;99.90;;;;;;5088537;28;20394;-77
2022/05/01 02:10:48;;;;;;;18.67;16.35;;;5.60;99.90;;;;;;5088372;28;20406;-77
2022/05/01 02:13:16;;;;;;;19.90;15.50;;;5.60;99.90;;;;;;5088092;28;20441;-78
2022/05/01 02:15:42;;;;;;;17.60;15.13;;;5.60;99.90;;;;;;5086976;28;20405;-77
2022/05/01 02:18:08;;;;;;;16.73;14.95;;;5.50;99.90;;;;;;5073757;28;20759;-78
2022/05/01 02:23:22;;;;;;;19.17;16.20;;;5.50;99.90;;;;;;5004630;28;20433;-78
2022/05/01 02:25:48;;;;;;;21.77;18.70;;;5.50;99.90;;;;;;5003747;28;20420;-78
2022/05/01 02:28:14;;;;;;;21.35;18.38;;;5.40;99.90;;;;;;5005666;28;20736;-78
2022/05/01 02:30:40;;;;;;;21.50;17.87;;;5.40;99.90;;;;;;5004330;28;20407;-77
2022/05/01 02:33:06;;;;;;;22.37;18.43;;;5.40;99.90;;;;;;5003914;28;20914;-77
2022/05/01 02:35:32;;;;;;;21.60;18.93;;;5.40;99.90;;;;;;5005379;28;20427;-77
2022/05/01 02:37:59;;;;;;;21.88;17.73;;;5.40;99.90;;;;;;5005331;28;20448;-76
2022/05/01 02:40:25;;;;;;;20.13;17.77;;;5.40;99.90;;;;;;5005611;28;20522;-78
2022/05/01 02:42:51;;;;;;;22.80;17.95;;;5.30;99.90;;;;;;5005185;28;20404;-78
2022/05/01 02:45:17;;;;;;;20.23;17.92;;;5.30;99.90;;;;;;5004164;28;20441;-77
2022/05/01 02:47:43;;;;;;;22.67;18.55;;;5.30;99.90;;;;;;5003503;28;20459;-77
2022/05/01 02:50:09;;;;;;;19.33;16.53;;;5.30;99.90;;;;;;5006570;28;20403;-77
2022/05/01 02:52:34;;;;;;;20.60;17.88;;;5.30;99.90;;;;;;5007590;28;20401;-77
2022/05/01 02:55:00;;;;;;;21.27;18.17;;;5.20;99.90;;;;;;5007105;28;20438;-78
2022/05/01 02:57:25;;;;;;;20.47;17.07;;;5.20;99.90;;;;;;5008105;28;20413;-77
2022/05/01 02:59:51;;;;;;;19.27;17.13;;;5.20;99.90;;;;;;5007453;28;21202;-77
2022/05/01 03:02:17;;;;;;;18.67;16.60;;;5.20;99.90;;;;;;5007814;28;20401;-77
2022/05/01 03:04:43;;;;;;;21.30;17.37;;;5.10;99.90;;;;;;5006263;28;20910;-77
2022/05/01 03:07:09;;;;;;;18.80;16.50;;;5.10;99.90;;;;;;5007819;28;20458;-77
2022/05/01 03:09:34;;;;;;;20.92;17.58;;;5.10;99.90;;;;;;5005479;28;20945;-77
2022/05/01 03:12:02;;;;;;;20.17;16.85;;;5.10;99.90;;;;;;5006513;28;20408;-77
2022/05/01 03:14:27;;;;;;;19.38;16.00;;;5.10;99.90;;;;;;5006769;28;20760;-77
2022/05/01 03:16:53;;;;;;;18.00;15.90;;;5.00;99.90;;;;;;5005926;28;20420;-76
2022/05/01 03:22:19;;;;;;;16.88;14.90;;;4.90;99.90;;;;;;5047982;28;20406;-77
2022/05/01 03:24:45;;;;;;;18.73;15.65;;;4.90;99.90;;;;;;5076237;28;20827;-77
2022/05/01 03:27:11;;;;;;;17.67;14.90;;;4.90;99.90;;;;;;5091020;28;20759;-77
2022/05/01 03:29:37;;;;;;;16.92;15.07;;;4.80;99.90;;;;;;5091414;28;20428;-76
2022/05/01 03:32:07;;;;;;;16.23;14.38;;;4.80;99.90;;;;;;5090202;28;20417;-77
2022/05/01 03:34:37;;;;;;;17.80;14.67;;;4.80;99.90;;;;;;5090261;28;20480;-77
2022/05/01 03:37:04;;;;;;;18.15;14.57;;;4.70;99.90;;;;;;5089912;28;20401;-76
2022/05/01 03:39:30;;;;;;;17.23;14.30;;;4.70;99.90;;;;;;5091200;28;20485;-77
2022/05/01 03:41:55;;;;;;;16.17;14.47;;;4.70;99.90;;;;;;5090827;28;20505;-77
2022/05/01 03:44:21;;;;;;;15.60;13.67;;;4.70;99.90;;;;;;5091097;28;20390;-77
2022/05/01 03:46:47;;;;;;;16.10;14.10;;;4.70;99.90;;;;;;5090917;28;20398;-77
2022/05/01 03:49:12;;;;;;;15.10;13.50;;;4.60;99.90;;;;;;5090267;28;20406;-77
2022/05/01 03:51:38;;;;;;;15.87;14.07;;;4.60;99.90;;;;;;5090589;28;20937;-77
2022/05/01 03:54:05;;;;;;;15.32;13.43;;;4.60;99.90;;;;;;5090670;28;20405;-77
2022/05/01 03:56:31;;;;;;;18.50;14.98;;;4.60;99.90;;;;;;5090816;28;20405;-77
2022/05/01 03:58:57;;;;;;;16.93;14.43;;;4.60;99.90;;;;;;5089375;28;20437;-77
2022/05/01 04:01:24;;;;;;;15.43;13.70;;;4.60;99.90;;;;;;5089392;28;20422;-77
2022/05/01 04:03:51;;;;;;;15.80;14.10;;;4.60;99.90;;;;;;5090518;28;20802;-77
2022/05/01 04:06:17;;;;;;;16.52;14.25;;;4.60;99.90;;;;;;5073020;28;20398;-76
2022/05/01 04:08:43;;;;;;;15.65;12.45;;;4.50;99.90;;;;;;5090721;28;20417;-77
2022/05/01 04:11:08;;;;;;;15.50;13.45;;;4.50;99.90;;;;;;5089603;28;20386;-77
2022/05/01 04:13:35;;;;;;;14.80;13.17;;;4.50;99.90;;;;;;5090408;28;20410;-77
2022/05/01 04:16:01;;;;;;;13.88;11.73;;;4.50;99.90;;;;;;5090167;28;20413;-77
2022/05/01 04:18:26;;;;;;;12.85;11.55;;;4.40;99.90;;;;;;5089947;28;20402;-76
2022/05/01 04:20:52;;;;;;;12.07;10.67;;;4.40;99.90;;;;;;5088741;28;20429;-76
2022/05/01 04:23:19;;;;;;;11.97;10.77;;;4.40;99.90;;;;;;5090600;28;20402;-76
2022/05/01 04:25:45;;;;;;;12.43;11.23;;;4.40;99.90;;;;;;5090443;28;20409;-77
2022/05/01 04:28:11;;;;;;;12.90;11.60;;;4.40;99.90;;;;;;5105657;28;20406;-77
2022/05/01 04:30:41;;;;;;;11.70;10.52;;;4.40;99.90;;;;;;5089123;28;20795;-77
2022/05/01 04:33:09;;;;;;;12.13;10.93;;;4.30;99.90;;;;;;5090231;28;20946;-77
2022/05/01 04:35:43;;;;;;;11.63;10.03;;;4.40;99.90;;;;;;5090059;28;21195;-77
2022/05/01 04:38:19;;;;;;;13.05;11.55;;;4.40;99.90;;;;;;5089719;28;20410;-77
2022/05/01 04:40:47;;;;;;;12.98;11.52;;;4.40;99.90;;;;;;5089882;28;20453;-77
2022/05/01 04:43:18;;;;;;;12.18;10.55;;;4.40;99.90;;;;;;5089986;28;20452;-77
2022/05/01 04:45:46;;;;;;;11.18;10.07;;;4.50;99.90;;;;;;5088598;28;20402;-77
2022/05/01 04:48:12;;;;;;;11.68;10.48;;;4.50;99.90;;;;;;5088576;28;20402;-77
2022/05/01 04:50:39;;;;;;;11.95;10.75;;;4.60;99.90;;;;;;5088525;28;20782;-77
2022/05/01 04:53:12;;;;;;;12.65;11.40;;;4.60;99.90;;;;;;5089641;28;20394;-77
2022/05/01 04:55:39;;;;;;;12.80;11.50;;;4.60;99.90;;;;;;5088375;28;20464;-76
2022/05/01 04:58:06;;;;;;;13.13;11.57;;;4.70;99.90;;;;;;5089147;28;20790;-77
2022/05/01 05:00:32;;;;;;;13.38;11.98;;;4.70;99.90;;;;;;5088943;28;20973;-77
2022/05/01 05:02:58;;;;;;;13.10;11.75;;;4.80;99.90;;;;;;5089579;28;20402;-77
2022/05/01 05:05:26;;;;;;;13.00;11.60;;;4.90;99.90;;;;;;5088335;28;21322;-76
2022/05/01 05:07:52;;;;;;;12.75;11.45;;;4.90;99.90;;;;;;5089003;28;20402;-77
2022/05/01 05:10:18;;;;;;;12.25;11.05;;;5.00;99.90;;;;;;5087833;28;20412;-77
2022/05/01 05:12:45;;;;;;;13.68;12.27;;;5.10;99.90;;;;;;5088632;28;20406;-77
2022/05/01 05:15:15;;;;;;;12.82;11.48;;;5.20;99.90;;;;;;5088196;28;20442;-77
2022/05/01 05:17:41;;;;;;;12.65;11.43;;;5.20;99.90;;;;;;5088344;28;20752;-77
2022/05/01 05:20:09;;;;;;;15.05;13.43;;;5.40;99.90;;;;;;5006784;28;20988;-77
2022/05/01 05:22:35;;;;;;;14.57;13.00;;;5.40;99.90;;;;;;5108360;27;20408;-77
2022/05/01 05:25:02;;;;;;;13.73;12.38;;;5.50;99.90;;;;;;5006291;28;20412;-77
2022/05/01 05:27:28;;;;;;;15.15;13.55;;;5.60;99.90;;;;;;5006348;28;20401;-77
2022/05/01 05:29:54;;;;;;;14.98;13.30;;;5.70;99.90;;;;;;5004721;28;21192;-77
2022/05/01 05:32:21;;;;;;;15.77;14.15;;;5.80;99.90;;;;;;5005061;28;20419;-76
2022/05/01 05:34:47;;;;;;;19.83;15.95;;;5.90;99.90;;;;;;5006184;28;20432;-77
2022/05/01 05:37:15;;;;;;;19.90;16.85;;;6.00;99.90;;;;;;4988422;28;20562;-77
2022/05/01 05:39:40;;;;;;;22.60;17.70;;;6.10;99.90;;;;;;5108241;27;20409;-77
2022/05/01 05:42:06;;;;;;;20.60;17.63;;;6.10;99.90;;;;;;4988954;28;20945;-76
2022/05/01 05:44:32;;;;;;;21.88;17.65;;;6.20;99.90;;;;;;5006152;28;20497;-77
2022/05/01 05:46:58;;;;;;;20.45;17.13;;;6.20;99.90;;;;;;5005789;28;20727;-77
2022/05/01 05:49:23;;;;;;;20.30;16.38;;;6.20;99.90;;;;;;5006192;28;20772;-77
2022/05/01 05:51:49;;;;;;;19.07;16.63;;;6.30;99.90;;;;;;5005668;28;20401;-77
2022/05/01 05:54:14;;;;;;;19.50;15.83;;;6.40;99.90;;;;;;5005177;28;20458;-76
2022/05/01 05:56:40;;;;;;;20.92;16.17;;;6.50;99.90;;;;;;5004261;28;20405;-77
2022/05/01 05:59:05;;;;;;;17.80;15.90;;;6.60;99.90;;;;;;5004579;28;20413;-77
2022/05/01 06:01:31;;;;;;;18.30;14.48;;;6.60;99.90;;;;;;5005783;28;20428;-77
2022/05/01 06:03:57;;;;;;;16.17;14.47;;;6.70;99.90;;;;;;5005584;28;20397;-77
2022/05/01 06:06:22;;;;;;;17.58;15.40;;;6.80;99.90;;;;;;5004686;28;20424;-77
2022/05/01 06:08:48;;;;;;;16.53;13.43;;;6.90;99.90;;;;;;5004071;28;21057;-77
2022/05/01 06:11:14;;;;;;;15.27;12.97;;;7.00;99.90;;;;;;5006035;28;20921;-77
2022/05/01 06:13:39;;;;;;;15.60;12.98;;;7.00;99.90;;;;;;5005036;28;20409;-77
2022/05/01 06:16:05;;;;;;;16.33;13.37;;;7.10;99.90;;;;;;5004389;28;20512;-77
2022/05/01 06:18:32;;;;;;;14.05;12.35;;;7.20;99.90;;;;;;5030740;28;20442;-77
2022/05/01 06:20:57;;;;;;;13.70;12.30;;;7.30;99.90;;;;;;5088225;28;20553;-77
2022/05/01 06:23:23;;;;;;;14.10;11.57;;;7.40;99.90;;;;;;5088306;28;20481;-77
2022/05/01 06:25:49;;;;;;;13.32;11.50;;;7.50;99.90;;;;;;5086891;28;20793;-77
2022/05/01 06:28:15;;;;;;;14.05;11.98;;;7.50;99.90;;;;;;5087252;28;20411;-77
2022/05/01 06:30:46;;;;;;;13.88;12.48;;;7.60;99.90;;;;;;5088215;28;20394;-77
2022/05/01 06:33:14;;;;;;;13.50;12.10;;;7.70;99.90;;;;;;5086334;28;20451;-76
2022/05/01 06:35:40;;;;;;;15.70;12.25;;;7.80;99.90;;;;;;5088021;28;20402;-77
2022/05/01 06:38:07;;;;;;;14.32;12.60;;;7.80;99.90;;;;;;5086921;28;20406;-76
2022/05/01 06:40:34;;;;;;;16.10;12.88;;;7.90;99.90;;;;;;5086749;28;20904;-76
2022/05/01 06:43:00;;;;;;;15.57;13.10;;;7.90;99.90;;;;;;5057203;28;20413;-77
2022/05/01 06:45:25;;;;;;;15.73;12.95;;;8.00;99.90;;;;;;4984528;28;20423;-76
2022/05/01 06:47:51;;;;;;;14.60;12.87;;;8.10;99.90;;;;;;4983256;28;20418;-77
2022/05/01 06:50:17;;;;;;;15.20;12.90;;;8.10;99.90;;;;;;5075918;28;20405;-78
2022/05/01 06:52:42;;;;;;;13.27;11.40;;;8.20;99.90;;;;;;5069353;28;20421;-78
2022/05/01 06:55:09;;;;;;;13.77;11.63;;;8.20;99.90;;;;;;4982829;28;20803;-78
2022/05/01 06:57:35;;;;;;;12.82;10.48;;;8.30;99.90;;;;;;5084792;28;20448;-78
2022/05/01 07:00:00;;;;;;;13.47;11.10;;;8.30;99.90;;;;;;5084490;28;20411;-77
2022/05/01 07:02:26;;;;;;;12.07;10.75;;;8.40;99.90;;;;;;4983910;28;20406;-78
2022/05/01 07:04:52;;;;;;;12.93;10.57;;;8.50;99.90;;;;;;4980738;28;21513;-78
2022/05/01 07:07:17;;;;;;;13.20;10.43;;;8.50;99.90;;;;;;4982884;28;20411;-77
2022/05/01 07:09:43;;;;;;;11.90;9.50;;;8.60;99.90;;;;;;4984279;28;20429;-77
2022/05/01 07:12:11;;;;;;;11.93;10.33;;;8.60;99.90;;;;;;4984062;28;20464;-78
2022/05/01 07:14:40;;;;;;;12.30;9.68;;;8.70;99.90;;;;;;4984270;28;20900;-77
2022/05/01 07:17:05;;;;;;;10.05;8.10;;;8.70;99.90;;;;;;4984111;28;20411;-77
2022/05/01 07:19:31;;;;;;;8.60;6.70;;;8.80;99.90;;;;;;4985521;28;20426;-78
2022/05/01 07:21:57;;;;;;;8.10;5.72;;;8.90;99.90;;;;;;4983459;28;20991;-78
2022/05/01 07:24:23;;;;;;;6.40;4.60;;;9.00;99.90;;;;;;4984106;28;20462;-78
2022/05/01 07:26:48;;;;;;;7.72;6.72;;;9.10;99.90;;;;;;4983992;28;20418;-78
2022/05/01 07:29:14;;;;;;;10.60;8.25;;;9.20;99.90;;;;;;4982901;28;20419;-78
2022/05/01 07:31:42;;;;;;;9.13;7.68;;;9.30;99.90;;;;;;5085342;28;20506;-78
2022/05/01 07:34:08;;;;;;;11.65;8.13;;;9.40;99.90;;;;;;4983162;28;20411;-78
2022/05/01 07:36:34;;;;;;;10.68;8.05;;;9.50;99.90;;;;;;4984521;28;20421;-78
2022/05/01 07:39:00;;;;;;;8.33;6.30;;;9.60;99.90;;;;;;4987128;28;20406;-78
2022/05/01 07:41:27;;;;;;;6.20;4.60;;;9.80;99.90;;;;;;4985949;28;20469;-78
2022/05/01 07:43:55;;;;;;;9.07;6.78;;;10.00;99.90;;;;;;4986869;28;20497;-79
2022/05/01 07:46:21;;;;;;;10.10;6.72;;;10.00;99.90;;;;;;4983208;28;20422;-78
2022/05/01 07:48:47;;;;;;;8.50;6.97;;;10.00;99.90;;;;;;4986972;28;20422;-79
2022/05/01 07:51:14;;;;;;;9.73;7.10;;;9.90;99.90;;;;;;5088414;28;21136;-79
2022/05/01 07:53:40;;;;;;;9.97;6.93;;;9.90;99.90;;;;;;4987239;28;20822;-78
2022/05/01 07:56:05;;;;;;;7.00;5.87;;;10.00;99.90;;;;;;4985779;28;20407;-79
2022/05/01 07:58:31;;;;;;;8.70;6.50;;;10.10;99.90;;;;;;4987046;28;20777;-78
2022/05/01 08:00:59;;;;;;;9.93;6.83;;;10.20;99.90;;;;;;4985082;28;20445;-79
2022/05/01 08:06:11;;;;;;;7.60;6.80;;;10.60;99.90;;;;;;4986822;28;20418;-78
2022/05/01 08:08:37;;;;;;;7.07;5.80;;;10.70;99.90;;;;;;4986854;28;20908;-79
2022/05/01 08:11:08;;;;;;;7.33;5.40;;;10.70;99.90;;;;;;4986526;28;20415;-78
2022/05/01 08:13:34;;;;;;;8.20;5.83;;;10.70;99.90;;;;;;4986459;28;20928;-78
2022/05/01 08:16:00;;;;;;;9.40;5.97;;;10.60;99.90;;;;;;4985118;28;20418;-78
2022/05/01 08:21:10;;;;;;;9.00;6.13;;;10.40;99.90;;;;;;4986417;28;20450;-78
2022/05/01 08:23:41;;;;;;;7.88;5.88;;;10.40;99.90;;;;;;4986624;28;20418;-78
2022/05/01 08:26:10;;;;;;;8.82;6.25;;;10.30;99.90;;;;;;4986104;28;20414;-78
2022/05/01 08:28:39;;;;;;;7.83;5.87;;;10.30;99.90;;;;;;4982144;28;20424;-78
2022/05/01 08:31:06;;;;;;;8.23;6.18;;;10.30;99.90;;;;;;4982437;28;20776;-78
2022/05/01 08:33:33;;;;;;;10.65;6.25;;;10.30;99.90;;;;;;4986398;28;20415;-79
2022/05/01 08:35:59;;;;;;;8.23;5.90;;;10.30;99.90;;;;;;4986027;28;20476;-79
2022/05/01 08:38:25;;;;;;;7.47;5.13;;;10.40;99.90;;;;;;4985145;28;20912;-78
2022/05/01 08:40:52;;;;;;;10.45;5.72;;;10.50;99.90;;;;;;4985490;28;20528;-77
2022/05/01 08:43:19;;;;;;;6.75;5.45;;;10.80;99.90;;;;;;4986010;28;21165;-78
2022/05/01 08:46:00;;;;;;;5.47;4.50;;;11.10;99.90;;;;;;4985273;28;20468;-77
2022/05/01 08:48:56;;;;;;;7.15;4.40;;;11.40;99.90;;;;;;4989456;28;20440;-76
2022/05/01 08:51:23;;;;;;;6.50;4.15;;;11.80;99.90;;;;;;4979910;28;20493;-78
2022/05/01 08:53:50;;;;;;;7.88;4.18;;;11.90;99.90;;;;;;4977646;28;20434;-77
2022/05/01 08:56:18;;;;;;;6.10;4.30;;;12.00;99.90;;;;;;4975484;28;20432;-77
2022/05/01 08:58:44;;;;;;;6.70;4.40;;;12.20;99.90;;;;;;4970837;28;20481;-77
2022/05/01 09:01:11;;;;;;;5.28;4.50;;;12.20;99.90;;;;;;5053533;28;20432;-77
2022/05/01 09:03:39;;;;;;;6.60;3.65;;;12.20;99.90;;;;;;5087990;28;20386;-77
2022/05/01 09:06:05;;;;;;;5.78;3.60;;;12.10;99.90;;;;;;5088711;28;20398;-77
2022/05/01 09:08:31;;;;;;;7.80;3.60;;;12.00;99.90;;;;;;5077051;28;20387;-77
2022/05/01 09:12:49;;;;;;;4.63;3.27;;;11.80;99.90;;;;;;5071653;28;20453;-77
2022/05/01 09:13:43;;;;;;;6.07;3.30;;;11.70;99.90;;;;;;4984419;28;20816;-77
2022/05/01 09:16:12;;;;;;;5.25;3.42;;;11.50;99.90;;;;;;4970209;28;20551;-76
2022/05/01 09:18:46;;;;;;;6.03;3.40;;;11.50;99.90;;;;;;5093644;27;20427;-77
2022/05/01 09:21:12;;;;;;;8.43;3.78;;;11.40;99.90;;;;;;5005159;28;20436;-77
2022/05/01 09:23:39;;;;;;;4.65;3.40;;;11.40;99.90;;;;;;5005356;28;20416;-77
2022/05/01 09:26:23;;;;;;;5.05;2.78;;;11.40;99.90;;;;;;4987453;28;20510;-78
2022/05/01 09:28:54;;;;;;;7.75;3.38;;;11.80;99.90;;;;;;4985525;28;20409;-77
2022/05/01 09:31:47;;;;;;;4.72;3.17;;;12.40;99.90;;;;;;4985795;28;20452;-76
2022/05/01 09:34:25;;;;;;;5.65;3.10;;;12.90;99.90;;;;;;4986082;28;20411;-77
2022/05/01 09:36:51;;;;;;;4.97;2.95;;;13.50;99.90;;;;;;4985605;28;20467;-78
2022/05/01 09:39:22;;;;;;;5.63;3.10;;;14.00;99.90;;;;;;4982093;28;20554;-78
2022/05/01 09:41:49;;;;;;;5.00;3.20;;;14.30;99.90;;;;;;4965788;28;20795;-77
2022/05/01 09:44:16;;;;;;;5.53;2.97;;;14.60;99.90;;;;;;4984028;28;20498;-77
2022/05/01 09:46:49;;;;;;;5.07;2.70;;;14.80;99.60;;;;;;4984299;28;20776;-78
2022/05/01 09:49:17;;;;;;;4.23;2.60;;;14.80;99.50;;;;;;4986613;28;20437;-77
2022/05/01 09:51:56;;;;;;;4.95;2.85;;;14.90;99.60;;;;;;4985582;28;20456;-78
2022/05/01 09:54:27;;;;;;;4.78;2.47;;;15.00;97.70;;;;;;4986290;28;20431;-78
2022/05/01 09:56:58;;;;;;;4.38;2.80;;;15.00;97.70;;;;;;4981332;28;20970;-77
2022/05/01 09:59:26;;;;;;;4.97;2.43;;;15.10;98.20;;;;;;4996962;28;20416;-78
2022/05/01 10:02:02;;;;;;;3.88;2.30;;;15.30;98.10;;;;;;4979854;28;20439;-77
2022/05/01 10:04:29;;;;;;;5.43;2.67;;;15.60;97.80;;;;;;4999018;28;20420;-78
2022/05/01 10:06:56;;;;;;;5.40;2.78;;;15.80;96.30;;;;;;4965675;28;20421;-78
2022/05/01 10:09:27;;;;;;;4.25;2.50;;;15.90;96.20;;;;;;4984729;28;20466;-78
2022/05/01 10:11:56;;;;;;;4.00;2.30;;;16.00;96.20;;;;;;4983605;28;20415;-77
2022/05/01 10:14:22;;;;;;;4.63;2.45;;;16.20;96.10;;;;;;4985782;28;20425;-76
2022/05/01 10:16:48;;;;;;;4.47;2.50;;;16.40;94.50;;;;;;4999708;28;20429;-77
2022/05/01 10:19:18;;;;;;;4.28;2.45;;;16.50;94.70;;;;;;4985503;28;20434;-77
2022/05/01 10:21:48;;;;;;;3.97;2.25;;;16.30;93.60;;;;;;4965908;28;20444;-78
2022/05/01 10:24:15;;;;;;;4.30;2.05;;;16.00;94.80;;;;;;4965505;28;20451;-78
2022/05/01 10:26:59;;;;;;;6.10;2.28;;;16.10;95.10;;;;;;4963849;28;20408;-78
2022/05/01 10:32:20;;;;;;;4.63;2.33;;;16.40;94.50;;;;;;4965860;28;20412;-78
2022/05/01 10:32:47;;;;;;;4.20;2.53;;;16.40;93.90;;;;;;5065708;28;20511;-78
2022/05/01 10:35:37;;;;;;;4.70;2.40;;;16.40;93.90;;;;;;4965252;28;20443;-78
2022/05/01 10:38:11;;;;;;;4.35;2.13;;;16.60;93.60;;;;;;4965098;28;20417;-78
2022/05/01 10:40:48;;;;;;;4.57;2.50;;;16.90;92.90;;;;;;5065173;28;20440;-79
2022/05/01 10:43:25;;;;;;;3.58;2.03;;;17.30;92.60;;;;;;4965569;28;20409;-78
2022/05/01 10:45:56;;;;;;;3.13;2.00;;;17.50;91.50;;;;;;5065473;28;20417;-78
2022/05/01 10:48:36;;;;;;;4.03;1.80;;;17.70;91.90;;;;;;4965317;28;21073;-78
2022/05/01 10:51:27;;;;;;;3.92;2.10;;;17.90;91.20;;;;;;4965434;28;20475;-78
2022/05/01 10:54:13;;;;;;;2.70;1.70;;;18.00;91.10;;;;;;4965158;28;20416;-78
2022/05/01 10:56:41;;;;;;;3.90;1.95;;;17.90;89.30;;;;;;4964829;28;20455;-78
2022/05/01 10:59:35;;;;;;;3.13;2.00;;;17.60;90.20;;;;;;5065507;28;20424;-78
2022/05/01 11:02:03;;;;;;;3.55;1.90;;;17.30;88.20;;;;;;4965104;28;20876;-78
2022/05/01 11:04:32;;;;;;;3.25;1.90;;;17.00;88.50;;;;;;4965160;28;20499;-77
2022/05/01 11:06:58;;;;;;;3.17;1.90;;;16.70;90.40;;;;;;4965202;28;20455;-78
2022/05/01 11:09:25;;;;;;;3.65;2.10;;;16.40;90.80;;;;;;4964865;28;20781;-78
2022/05/01 11:11:58;;;;;;;2.88;1.98;;;16.10;90.80;;;;;;4966916;28;20479;-77
2022/05/01 11:14:33;;;;;;;4.45;2.38;;;15.80;91.40;;;;;;4968348;28;20409;-78
2022/05/01 11:16:59;;;;;;;4.45;2.50;;;15.60;91.40;;;;;;4968457;28;20510;-79
2022/05/01 11:19:30;;;;;;;3.58;2.05;;;15.50;91.70;;;;;;4994762;28;20488;-78
2022/05/01 11:21:55;;;;;;;3.83;2.40;;;15.30;92.10;;;;;;5005780;28;20440;-78
2022/05/01 11:24:40;;;;;;;4.40;2.17;;;15.20;91.90;;;;;;5007044;28;21288;-77
2022/05/01 11:27:16;;;;;;;4.47;2.58;;;15.00;92.00;;;;;;5006070;28;20774;-78
2022/05/01 11:30:06;;;;;;;2.95;2.28;;;14.80;92.40;;;;;;5007030;28;20415;-78
2022/05/01 11:32:58;;;;;;;5.25;2.50;;;14.70;92.70;;;;;;5007186;28;20417;-78
2022/05/01 11:35:54;;;;;;;4.00;1.50;;;14.60;93.10;;;;;;5006724;28;21168;-78
2022/05/01 11:38:22;;;;;;;3.40;1.60;;;14.60;92.90;;;;;;4989446;28;20413;-78
2022/05/01 11:41:02;;;;;;;3.70;1.52;;;14.60;92.60;;;;;;5007750;28;20786;-78
2022/05/01 11:43:29;;;;;;;3.10;1.50;;;14.50;92.60;;;;;;5007913;28;20421;-78
2022/05/01 11:45:56;;;;;;;2.63;1.58;;;14.50;92.80;;;;;;5007577;28;20409;-78
2022/05/01 11:48:22;;;;;;;3.63;1.42;;;14.50;93.20;;;;;;5007859;28;20487;-78
2022/05/01 11:50:51;;;;;;;4.75;1.55;;;14.70;92.70;;;;;;5007489;28;20412;-78
2022/05/01 11:53:19;;;;;;;3.80;1.38;;;14.90;92.80;;;;;;5007542;28;20409;-78
2022/05/01 12:04:22;;;;;;;2.15;1.00;;;15.50;91.40;;;;;;5007654;28;20484;-78
2022/05/01 12:06:47;;;;;;;3.17;1.25;;;15.60;90.60;;;;;;5006455;28;20433;-78
2022/05/01 12:09:17;;;;;;;3.47;1.47;;;15.60;90.70;;;;;;5007378;28;20447;-78
2022/05/01 12:11:46;;;;;;;2.30;1.30;;;15.60;90.60;;;;;;5007274;28;20448;-78
2022/05/01 12:14:13;;;;;;;2.20;1.13;;;15.70;90.30;;;;;;5007560;28;20404;-78
2022/05/01 12:16:40;;;;;;;3.00;1.17;;;15.70;88.80;;;;;;5006120;28;20409;-78
2022/05/01 12:19:07;;;;;;;3.70;1.30;;;15.80;90.40;;;;;;5052619;28;20431;-78
2022/05/01 12:21:34;;;;;;;2.85;1.30;;;15.90;89.70;;;;;;5088767;28;20510;-78
2022/05/01 12:24:07;;;;;;;3.13;1.38;;;15.90;89.10;;;;;;5089198;28;20402;-78
2022/05/01 12:26:37;;;;;;;2.80;1.33;;;16.00;89.30;;;;;;5090658;28;20451;-78
2022/05/01 12:29:07;;;;;;;2.10;1.20;;;16.00;89.60;;;;;;5090476;28;20406;-78
2022/05/01 12:31:53;;;;;;;2.75;1.20;;;16.40;87.50;;;;;;5021689;28;20460;-78
2022/05/01 12:34:26;;;;;;;2.38;1.10;;;16.70;87.80;;;;;;4972183;28;20519;-78
2022/05/01 12:36:59;;;;;;;2.80;1.17;;;16.80;86.60;;;;;;4987665;28;20502;-78
2022/05/01 12:39:26;;;;;;;3.47;1.23;;;17.10;86.90;;;;;;4987055;28;20900;-78
2022/05/01 12:45:05;;;;;;;2.70;1.10;;;17.80;85.40;;;;;;4986236;28;20447;-78
2022/05/01 12:47:34;;;;;;;2.20;1.10;;;18.20;82.40;;;;;;4985824;28;20506;-79
2022/05/01 12:50:11;;;;;;;3.20;1.00;;;18.40;82.20;;;;;;4982117;28;20414;-78
2022/05/01 12:52:39;;;;;;;3.25;1.00;;;18.80;82.20;;;;;;4986299;28;20418;-79
2022/05/01 12:55:06;;;;;;;2.40;0.90;;;19.00;80.40;;;;;;5059448;28;20510;-78
2022/05/01 12:57:33;;;;;;;3.38;1.27;;;19.10;78.30;;;;;;4985057;28;20436;-78
2022/05/01 12:59:59;;;;;;;3.03;1.10;;;19.10;77.90;;;;;;4987145;28;20411;-78
2022/05/01 13:02:25;;;;;;;2.00;0.80;;;19.10;76.20;;;;;;4988969;28;20418;-78
2022/05/01 13:04:58;;;;;;;1.60;0.90;;;18.90;75.90;;;;;;4987466;28;20465;-78
2022/05/01 13:07:31;;;;;;;2.97;1.00;;;19.00;77.50;;;;;;4986537;28;20439;-78
2022/05/01 13:09:57;;;;;;;3.90;1.27;;;18.90;76.60;;;;;;5016853;28;20487;-79
2022/05/01 13:12:34;;;;;;;2.13;0.93;;;18.90;77.40;;;;;;5089308;28;20406;-78